Condor Express — 9V5373 — position and weather

sailwx.info

Track history (hours):
 
Tides and Currents Weather Stations Pressure Air Temp Water Temp Dewpoint Dewpoint Depression Visibility Wind Speed Wind Dir Waves Ship Positions

Condor Express

Operator: Condor Marine Services

Last reported at 2018-Apr-17 06:39 UTC. Time now 2018-Apr-21 00:21 UTC.
Position N 01°15' E 104°07'.

Length 235 m; draft 12.2 m.

Type: Cargo ship. MMSI: 563014500.

Date/timePositionNaut miles runAvg speedWind from/ knotsBaromVisibWave heightAir tempDewpointWater temp
2018-Apr-17 06:39N 01°15' E 104°07'211.7
2018-Apr-17 06:28N 01°15' E 104°05'511.1
2018-Apr-17 06:00N 01°15' E 104°00'4 6.7
2018-Apr-17 05:26N 01°17' E 103°57'0 0.3
2018-Apr-17 04:23N 01°17' E 103°57'0 0.0
2018-Apr-17 03:50N 01°17' E 103°57'0 0.0
2018-Apr-17 03:29N 01°17' E 103°57'0 0.0
2018-Apr-17 02:56N 01°17' E 103°57'0 0.0
2018-Apr-17 02:20N 01°17' E 103°57'0 0.0
2018-Apr-17 01:53N 01°17' E 103°57'0 0.0
2018-Apr-17 01:05N 01°17' E 103°57'0 0.0
2018-Apr-17 00:53N 01°17' E 103°57'0 0.1
2018-Apr-17 00:29N 01°17' E 103°57'0 0.1
2018-Apr-16 23:05N 01°17' E 103°57'0 0.0
2018-Apr-16 20:47N 01°17' E 103°57'0 0.2
2018-Apr-16 20:29N 01°17' E 103°57'0 0.0
2018-Apr-16 19:59N 01°17' E 103°57'0 0.0
2018-Apr-16 18:17N 01°17' E 103°57'0 0.1
2018-Apr-16 17:53N 01°17' E 103°57'0 0.2
2018-Apr-16 16:29N 01°17' E 103°57'0 0.0
2018-Apr-16 15:59N 01°17' E 103°57'0 0.0
2018-Apr-16 12:08N 01°17' E 103°57'0 0.3
2018-Apr-16 11:54N 01°17' E 103°57'0 0.1
2018-Apr-16 11:29N 01°17' E 103°57'2 3.2
2018-Apr-16 10:59N 01°15' E 103°57'2 4.5
2018-Apr-16 10:29N 01°13' E 103°56'3 5.4
2018-Apr-16 09:59N 01°12' E 103°53'3 6.2
2018-Apr-16 09:29N 01°11' E 103°50'4 7.3
2018-Apr-16 08:59N 01°09' E 103°47'4 7.5
2018-Apr-16 08:28N 01°07' E 103°44'4 7.8
2018-Apr-16 08:00N 01°04' E 103°41'5 9.4
2018-Apr-16 07:30N 01°04' E 103°37'611.4
2018-Apr-16 06:59N 01°07' E 103°32'611.8
2018-Apr-16 06:30N 01°11' E 103°27'  
Track history (hours):
 
Tides and Currents Weather Stations Pressure Air Temp Water Temp Dewpoint Dewpoint Depression Visibility Wind Speed Wind Dir Waves Ship Positions

Condor Express

Operator: Condor Marine Services

Last reported at 2018-Apr-17 06:39 UTC. Time now 2018-Apr-21 00:21 UTC.
Position N 01°15' E 104°07'.

Length 235 m; draft 12.2 m.

Type: Cargo ship. MMSI: 563014500.

Date/timePositionNaut miles runAvg speedWind from/ knotsBaromVisibWave heightAir tempDewpointWater temp
2018-Apr-17 06:39N 01°15' E 104°07'211.7
2018-Apr-17 06:28N 01°15' E 104°05'511.1
2018-Apr-17 06:00N 01°15' E 104°00'4 6.7
2018-Apr-17 05:26N 01°17' E 103°57'0 0.3
2018-Apr-17 04:23N 01°17' E 103°57'0 0.0
2018-Apr-17 03:50N 01°17' E 103°57'0 0.0
2018-Apr-17 03:29N 01°17' E 103°57'0 0.0
2018-Apr-17 02:56N 01°17' E 103°57'0 0.0
2018-Apr-17 02:20N 01°17' E 103°57'0 0.0
2018-Apr-17 01:53N 01°17' E 103°57'0 0.0
2018-Apr-17 01:05N 01°17' E 103°57'0 0.0
2018-Apr-17 00:53N 01°17' E 103°57'0 0.1
2018-Apr-17 00:29N 01°17' E 103°57'0 0.1
2018-Apr-16 23:05N 01°17' E 103°57'0 0.0
2018-Apr-16 20:47N 01°17' E 103°57'0 0.2
2018-Apr-16 20:29N 01°17' E 103°57'0 0.0
2018-Apr-16 19:59N 01°17' E 103°57'0 0.0
2018-Apr-16 18:17N 01°17' E 103°57'0 0.1
2018-Apr-16 17:53N 01°17' E 103°57'0 0.2
2018-Apr-16 16:29N 01°17' E 103°57'0 0.0
2018-Apr-16 15:59N 01°17' E 103°57'0 0.0
2018-Apr-16 12:08N 01°17' E 103°57'0 0.3
2018-Apr-16 11:54N 01°17' E 103°57'0 0.1
2018-Apr-16 11:29N 01°17' E 103°57'2 3.2
2018-Apr-16 10:59N 01°15' E 103°57'2 4.5
2018-Apr-16 10:29N 01°13' E 103°56'3 5.4
2018-Apr-16 09:59N 01°12' E 103°53'3 6.2
2018-Apr-16 09:29N 01°11' E 103°50'4 7.3
2018-Apr-16 08:59N 01°09' E 103°47'4 7.5
2018-Apr-16 08:28N 01°07' E 103°44'4 7.8
2018-Apr-16 08:00N 01°04' E 103°41'5 9.4
2018-Apr-16 07:30N 01°04' E 103°37'611.4
2018-Apr-16 06:59N 01°07' E 103°32'611.8
2018-Apr-16 06:30N 01°11' E 103°27'  

Dump ship's entire track history